Time;durP1;ratioP1;P1;durP2;ratioP2;P2;SDS_P1;SDS_P2;PMS_P1;PMS_P2;Temp;Humidity;BMP_temperature;BMP_pressure;BME280_temperature;BME280_humidity;BME280_pressure;Samples;Min_cycle;Max_cycle;Signal;HPM_P1;HPM_P2
2022/12/13 00:01:22;;;;;;;;;;;0.50;99.90;;;;;;5050173;28;19931;-66
2022/12/13 00:03:51;;;;;;;;;;;0.70;99.90;;;;;;5050918;28;19947;-65
2022/12/13 00:06:20;;;;;;;;;;;0.60;99.90;;;;;;5050857;28;19931;-65
2022/12/13 00:08:47;;;;;;;;;;;0.60;99.90;;;;;;5050841;28;20413;-66
2022/12/13 00:11:15;;;;;;;;;;;0.70;99.90;;;;;;5049685;28;19924;-66
2022/12/13 00:13:45;;;;;;;;;;;0.70;99.90;;;;;;5050761;28;19925;-65
2022/12/13 00:16:16;;;;;;;;;;;0.80;99.90;;;;;;5050865;28;19925;-65
2022/12/13 00:18:46;;;;;;;;;;;0.90;99.90;;;;;;5051133;28;19925;-66
2022/12/13 00:21:15;;;;;;;;;;;0.80;99.90;;;;;;5049414;28;19956;-66
2022/12/13 00:23:42;;;;;;;;;;;0.70;99.90;;;;;;5050774;28;20402;-65
2022/12/13 00:26:11;;;;;;;;;;;0.80;99.90;;;;;;5050865;28;19925;-66
2022/12/13 00:28:39;;;;;;;;;;;0.80;99.90;;;;;;5050977;28;19929;-66
2022/12/13 00:31:08;;;;;;;;;;;0.80;99.90;;;;;;5049909;28;19933;-65
2022/12/13 00:33:57;;;;;;;;;;;0.70;99.90;;;;;;5037875;28;19932;-65
2022/12/13 00:36:25;;;;;;;;;;;0.70;99.90;;;;;;5052397;28;19965;-65
2022/12/13 00:39:00;;;;;;;;;;;0.60;99.90;;;;;;5054421;28;20029;-66
2022/12/13 00:41:29;;;;;;;;;;;0.60;99.90;;;;;;5053779;28;19925;-66
2022/12/13 00:43:57;;;;;;;;;;;0.60;99.90;;;;;;5053988;28;20024;-66
2022/12/13 00:46:25;;;;;;;;;;;0.60;99.90;;;;;;5054172;28;20337;-66
2022/12/13 00:48:53;;;;;;;;;;;0.60;99.90;;;;;;5053669;28;19971;-66
2022/12/13 00:51:23;;;;;;;;;;;0.70;99.90;;;;;;5053481;28;19931;-66
2022/12/13 00:53:51;;;;;;;;;;;0.70;99.90;;;;;;5054025;28;19925;-66
2022/12/13 00:56:20;;;;;;;;;;;0.80;99.90;;;;;;5053925;28;20406;-65
2022/12/13 00:58:48;;;;;;;;;;;0.70;99.90;;;;;;5053998;28;20449;-66
2022/12/13 01:01:20;;;;;;;;;;;0.60;99.90;;;;;;5052526;28;19935;-66
2022/12/13 01:03:48;;;;;;;;;;;0.60;99.90;;;;;;5053902;28;19925;-65
2022/12/13 01:06:18;;;;;;;;;;;0.40;99.90;;;;;;5054234;28;20389;-66
2022/12/13 01:08:48;;;;;;;;;;;0.30;99.90;;;;;;5053711;28;19971;-66
2022/12/13 01:11:16;;;;;;;;;;;0.30;99.90;;;;;;5053284;28;19928;-66
2022/12/13 01:13:44;;;;;;;;;;;-0.10;99.90;;;;;;5053823;28;20020;-65
2022/12/13 01:16:12;;;;;;;;;;;-0.50;99.90;;;;;;5052223;28;20218;-65
2022/12/13 01:18:40;;;;;;;;;;;-0.50;99.90;;;;;;5053597;28;20326;-65
2022/12/13 01:21:10;;;;;;;;;;;-0.50;99.90;;;;;;5052608;28;19931;-66
2022/12/13 01:23:38;;;;;;;;;;;-0.50;99.90;;;;;;5034054;28;20036;-66
2022/12/13 01:26:08;;;;;;;;;;;-0.70;99.90;;;;;;5033665;28;20491;-66
2022/12/13 01:28:36;;;;;;;;;;;-0.50;99.90;;;;;;5036179;28;19929;-65
2022/12/13 01:31:04;;;;;;;;;;;-0.60;99.90;;;;;;5052531;28;19925;-66
2022/12/13 01:33:33;;;;;;;;;;;-0.60;99.90;;;;;;5053126;28;20452;-65
2022/12/13 01:36:01;;;;;;;;;;;-0.50;99.90;;;;;;5053176;28;19924;-65
2022/12/13 01:38:29;;;;;;;;;;;-0.80;99.90;;;;;;5052846;28;20002;-65
2022/12/13 01:40:57;;;;;;;;;;;-0.90;99.90;;;;;;5052623;28;19931;-66
2022/12/13 01:43:29;;;;;;;;;;;-0.80;99.90;;;;;;5053392;28;19936;-65
2022/12/13 01:45:56;;;;;;;;;;;-0.70;99.90;;;;;;5053054;28;19924;-65
2022/12/13 01:48:26;;;;;;;;;;;-0.90;99.90;;;;;;5051728;28;19987;-65
2022/12/13 01:50:56;;;;;;;;;;;-1.00;99.90;;;;;;5051579;28;19924;-65
2022/12/13 01:53:26;;;;;;;;;;;-1.20;99.90;;;;;;5043475;28;19925;-65
2022/12/13 01:55:56;;;;;;;;;;;-1.50;99.90;;;;;;5044652;28;19925;-65
2022/12/13 01:58:24;;;;;;;;;;;-1.50;99.90;;;;;;5052732;28;19931;-65
2022/12/13 02:00:53;;;;;;;;;;;-1.70;99.90;;;;;;5051930;28;19931;-65
2022/12/13 02:03:21;;;;;;;;;;;-1.60;99.90;;;;;;5052975;28;19931;-65
2022/12/13 02:05:53;;;;;;;;;;;-1.80;99.90;;;;;;5052193;28;19925;-65
2022/12/13 02:08:21;;;;;;;;;;;-1.60;99.90;;;;;;5052811;28;19929;-65
2022/12/13 02:10:49;;;;;;;;;;;-1.80;99.90;;;;;;5051917;28;19927;-65
2022/12/13 02:13:17;;;;;;;;;;;-1.90;99.90;;;;;;5052539;28;19924;-65
2022/12/13 02:15:47;;;;;;;;;;;-2.10;99.90;;;;;;5052343;28;20011;-65
2022/12/13 02:18:23;;;;;;;;;;;-2.10;99.90;;;;;;5052449;28;19939;-65
2022/12/13 02:21:07;;;;;;;;;;;-2.10;99.90;;;;;;5051854;28;20320;-65
2022/12/13 02:23:59;;;;;;;;;;;-2.10;99.90;;;;;;5052412;28;19931;-65
2022/12/13 02:26:56;;;;;;;;;;;-2.00;99.90;;;;;;4999840;28;20027;-65
2022/12/13 02:29:45;;;;;;;;;;;-2.40;99.90;;;;;;5051995;28;19925;-65
2022/12/13 02:32:16;;;;;;;;;;;-2.60;99.90;;;;;;5017159;28;20011;-65
2022/12/13 02:34:46;;;;;;;;;;;-2.10;99.90;;;;;;5052388;28;19925;-65
2022/12/13 02:37:17;;;;;;;;;;;-2.00;99.90;;;;;;5052297;28;19925;-65
2022/12/13 02:39:48;;;;;;;;;;;-2.40;99.90;;;;;;5050564;28;20345;-65
2022/12/13 02:42:18;;;;;;;;;;;-2.60;99.90;;;;;;5052186;28;20336;-65
2022/12/13 02:44:51;;;;;;;;;;;-2.60;99.90;;;;;;5052039;28;19925;-65
2022/12/13 02:47:22;;;;;;;;;;;-2.70;99.90;;;;;;5051829;28;20007;-65
2022/12/13 02:49:51;;;;;;;;;;;-3.10;99.90;;;;;;5051274;28;19924;-66
2022/12/13 02:52:20;;;;;;;;;;;-3.10;99.90;;;;;;5051431;28;19925;-65
2022/12/13 02:54:49;;;;;;;;;;;-2.70;99.90;;;;;;5052123;28;20364;-66
2022/12/13 02:57:28;;;;;;;;;;;-2.90;99.90;;;;;;5051369;28;20408;-66
2022/12/13 02:59:57;;;;;;;;;;;-2.60;99.90;;;;;;5049990;28;20301;-66
2022/12/13 03:02:31;;;;;;;;;;;-2.20;99.90;;;;;;5051643;28;19928;-66
2022/12/13 03:07:54;;;;;;;;;;;-1.70;99.90;;;;;;5031737;28;19931;-65
2022/12/13 03:10:23;;;;;;;;;;;-1.70;99.90;;;;;;5031008;28;19980;-65
2022/12/13 03:15:42;;;;;;;;;;;-1.50;99.90;;;;;;5039700;28;20357;-66
2022/12/13 03:18:15;;;;;;;;;;;-1.30;99.90;;;;;;5051492;28;20221;-66
2022/12/13 03:20:45;;;;;;;;;;;-1.30;99.90;;;;;;5050534;28;19929;-66
2022/12/13 03:23:13;;;;;;;;;;;-1.70;99.90;;;;;;5051364;28;20321;-66
2022/12/13 03:25:41;;;;;;;;;;;-1.70;99.90;;;;;;5051561;28;19939;-66
2022/12/13 03:28:08;;;;;;;;;;;-1.80;99.90;;;;;;5051524;28;19925;-66
2022/12/13 03:30:36;;;;;;;;;;;-1.80;99.90;;;;;;5050023;28;19925;-66
2022/12/13 03:33:04;;;;;;;;;;;-1.80;99.90;;;;;;5051444;28;19931;-66
2022/12/13 03:35:33;;;;;;;;;;;-2.00;99.90;;;;;;5051478;28;19928;-66
2022/12/13 03:38:12;;;;;;;;;;;-1.90;99.90;;;;;;5050579;28;19929;-66
2022/12/13 03:40:50;;;;;;;;;;;-2.10;99.90;;;;;;5041952;28;19930;-66
2022/12/13 03:43:18;;;;;;;;;;;-2.00;99.90;;;;;;5031494;28;19925;-66
2022/12/13 03:45:49;;;;;;;;;;;-2.00;99.90;;;;;;5031470;28;19932;-66
2022/12/13 03:48:17;;;;;;;;;;;-2.00;99.90;;;;;;5031405;28;19964;-66
2022/12/13 03:50:51;;;;;;;;;;;-1.80;99.90;;;;;;5030697;28;19947;-66
2022/12/13 03:53:18;;;;;;;;;;;-1.60;99.90;;;;;;5031346;28;20016;-66
2022/12/13 03:55:50;;;;;;;;;;;-1.70;99.90;;;;;;5049664;28;20584;-66
2022/12/13 03:58:17;;;;;;;;;;;-1.60;99.90;;;;;;5051382;28;20019;-66
2022/12/13 04:00:45;;;;;;;;;;;-1.30;99.90;;;;;;5049891;28;19931;-66
2022/12/13 04:03:13;;;;;;;;;;;-1.50;99.90;;;;;;5051080;28;19925;-66
2022/12/13 04:05:41;;;;;;;;;;;-1.30;99.90;;;;;;5051276;28;19932;-66
2022/12/13 04:08:10;;;;;;;;;;;-1.20;99.90;;;;;;5050944;28;20457;-66
2022/12/13 04:10:49;;;;;;;;;;;-1.10;99.90;;;;;;5050347;28;19971;-66
2022/12/13 04:13:34;;;;;;;;;;;-1.10;99.90;;;;;;5054848;28;19925;-66
2022/12/13 04:16:02;;;;;;;;;;;-0.90;99.90;;;;;;5054945;28;19928;-66
2022/12/13 04:18:30;;;;;;;;;;;-0.80;99.90;;;;;;5054626;28;19925;-66
2022/12/13 04:20:57;;;;;;;;;;;-1.00;99.90;;;;;;5053881;28;20325;-66
2022/12/13 04:23:27;;;;;;;;;;;-0.90;99.90;;;;;;5054813;28;19931;-66
2022/12/13 04:25:54;;;;;;;;;;;-0.90;99.90;;;;;;5054697;28;19931;-66
2022/12/13 04:28:22;;;;;;;;;;;-1.10;99.90;;;;;;5054152;28;19931;-66
2022/12/13 04:30:50;;;;;;;;;;;-1.00;99.90;;;;;;5053458;28;19963;-66
2022/12/13 04:33:20;;;;;;;;;;;-1.00;99.90;;;;;;5054444;28;19932;-66
2022/12/13 04:35:49;;;;;;;;;;;-0.90;99.90;;;;;;5054381;28;20397;-66
2022/12/13 04:38:17;;;;;;;;;;;-1.10;99.90;;;;;;5054513;28;20423;-66
2022/12/13 04:40:46;;;;;;;;;;;-1.30;99.90;;;;;;5053541;28;19925;-66
2022/12/13 04:43:13;;;;;;;;;;;-1.00;99.90;;;;;;5053748;28;20023;-66
2022/12/13 04:45:41;;;;;;;;;;;-0.70;99.90;;;;;;5053967;28;20309;-66
2022/12/13 04:48:09;;;;;;;;;;;-0.60;99.90;;;;;;5054280;28;19925;-66
2022/12/13 04:50:37;;;;;;;;;;;-0.50;99.90;;;;;;5053407;28;20386;-66
2022/12/13 04:53:05;;;;;;;;;;;-0.60;99.90;;;;;;5054372;28;20001;-66
2022/12/13 04:55:32;;;;;;;;;;;-0.30;99.90;;;;;;5053987;28;19960;-66
2022/12/13 04:58:01;;;;;;;;;;;-0.30;99.90;;;;;;5055262;28;20023;-66
2022/12/13 05:00:29;;;;;;;;;;;-0.40;99.90;;;;;;5052445;28;19936;-66
2022/12/13 05:02:57;;;;;;;;;;;-0.40;99.90;;;;;;5053757;28;20443;-66
2022/12/13 05:05:24;;;;;;;;;;;-0.40;99.90;;;;;;5053989;28;20317;-66
2022/12/13 05:07:52;;;;;;;;;;;-0.30;99.90;;;;;;5053972;28;19929;-65
2022/12/13 05:10:20;;;;;;;;;;;-0.30;99.90;;;;;;5053370;28;19966;-66
2022/12/13 05:13:06;;;;;;;;;;;-0.20;99.90;;;;;;5053988;28;19924;-66
2022/12/13 05:15:34;;;;;;;;;;;-0.20;99.90;;;;;;5053726;28;19931;-66
2022/12/13 05:18:03;;;;;;;;;;;0.00;99.90;;;;;;5053203;28;19929;-66
2022/12/13 05:20:38;;;;;;;;;;;0.10;99.90;;;;;;5052000;28;20422;-66
2022/12/13 05:23:06;;;;;;;;;;;0.20;99.90;;;;;;5033503;28;19933;-66
2022/12/13 05:25:35;;;;;;;;;;;0.10;99.90;;;;;;5033894;28;20363;-65
2022/12/13 05:28:04;;;;;;;;;;;0.10;99.90;;;;;;5042923;28;19931;-65
2022/12/13 05:30:52;;;;;;;;;;;0.00;99.90;;;;;;5046282;28;19929;-64
2022/12/13 05:33:20;;;;;;;;;;;0.00;99.90;;;;;;5052280;28;20440;-66
2022/12/13 05:35:48;;;;;;;;;;;-0.30;99.90;;;;;;5048247;28;20056;-66
2022/12/13 05:38:16;;;;;;;;;;;-0.60;99.90;;;;;;5039590;28;20356;-66
2022/12/13 05:40:43;;;;;;;;;;;-1.00;99.90;;;;;;5033083;28;19929;-66
2022/12/13 05:43:12;;;;;;;;;;;-1.30;99.90;;;;;;5032111;28;20305;-65
2022/12/13 05:45:48;;;;;;;;;;;-1.50;99.90;;;;;;5029533;28;19926;-65
2022/12/13 05:48:17;;;;;;;;;;;-1.90;99.90;;;;;;5029734;28;19929;-65
2022/12/13 05:50:51;;;;;;;;;;;-2.10;99.90;;;;;;5030037;28;20530;-65
2022/12/13 05:53:38;;;;;;;;;;;-2.30;99.90;;;;;;5037392;28;20797;-65
2022/12/13 05:56:06;;;;;;;;;;;-2.70;99.90;;;;;;5029130;28;19982;-65
2022/12/13 05:58:36;;;;;;;;;;;-2.90;99.90;;;;;;5033302;28;20418;-66
2022/12/13 06:01:04;;;;;;;;;;;-3.00;99.90;;;;;;5033734;28;19956;-65
2022/12/13 06:03:32;;;;;;;;;;;-3.10;99.90;;;;;;5030954;28;19932;-65
2022/12/13 06:06:00;;;;;;;;;;;-3.20;99.90;;;;;;5037084;28;20431;-65
2022/12/13 06:08:28;;;;;;;;;;;-3.30;99.90;;;;;;5035311;28;19929;-65
2022/12/13 06:10:56;;;;;;;;;;;-3.40;99.90;;;;;;5032487;28;20802;-65
2022/12/13 06:13:41;;;;;;;;;;;-3.50;99.90;;;;;;5035600;28;20034;-66
2022/12/13 06:16:11;;;;;;;;;;;-3.80;99.90;;;;;;5027964;28;19932;-65
2022/12/13 06:18:51;;;;;;;;;;;-3.80;99.90;;;;;;5031895;28;19940;-66
2022/12/13 06:21:28;;;;;;;;;;;-3.90;99.90;;;;;;5028440;28;19933;-65
2022/12/13 06:24:10;;;;;;;;;;;-4.00;99.90;;;;;;5031457;28;20416;-65
2022/12/13 06:26:38;;;;;;;;;;;-4.20;99.90;;;;;;5031768;28;19933;-65
2022/12/13 06:29:07;;;;;;;;;;;-4.20;99.90;;;;;;5031616;28;19940;-65
2022/12/13 06:31:34;;;;;;;;;;;-4.30;99.90;;;;;;5023788;28;20404;-65
2022/12/13 06:34:03;;;;;;;;;;;-4.40;99.90;;;;;;5036226;28;19948;-65
2022/12/13 06:36:42;;;;;;;;;;;-4.40;99.90;;;;;;5040691;28;19929;-65
2022/12/13 06:39:09;;;;;;;;;;;-4.40;99.90;;;;;;5028217;28;19988;-65
2022/12/13 06:41:37;;;;;;;;;;;-4.40;99.90;;;;;;5030353;28;19933;-65
2022/12/13 06:44:06;;;;;;;;;;;-4.40;99.90;;;;;;5033485;28;20290;-64
2022/12/13 06:46:34;;;;;;;;;;;-4.40;99.90;;;;;;5026468;28;19933;-65
2022/12/13 06:49:02;;;;;;;;;;;-4.50;99.90;;;;;;5028251;28;19940;-66
2022/12/13 06:51:30;;;;;;;;;;;-4.50;99.90;;;;;;5030493;28;20402;-65
2022/12/13 06:54:00;;;;;;;;;;;-4.50;99.90;;;;;;5030359;28;19999;-64
2022/12/13 06:56:29;;;;;;;;;;;-4.50;99.90;;;;;;5026024;28;19939;-64
2022/12/13 06:58:56;;;;;;;;;;;-4.50;99.90;;;;;;5029394;28;20080;-64
2022/12/13 07:01:30;;;;;;;;;;;-4.40;99.90;;;;;;5032831;28;19933;-65
2022/12/13 07:04:04;;;;;;;;;;;-4.40;99.90;;;;;;5041022;28;19936;-64
2022/12/13 07:06:52;;;;;;;;;;;-4.40;99.90;;;;;;5028780;28;19933;-64
2022/12/13 07:09:20;;;;;;;;;;;-4.30;99.90;;;;;;5025794;28;20698;-65
2022/12/13 07:11:48;;;;;;;;;;;-4.30;99.90;;;;;;5026977;28;19925;-65
2022/12/13 07:14:19;;;;;;;;;;;-4.30;99.90;;;;;;5026760;28;19933;-65
2022/12/13 07:16:48;;;;;;;;;;;-4.30;99.90;;;;;;5040032;28;19925;-65
2022/12/13 07:19:16;;;;;;;;;;;-4.30;99.90;;;;;;5047256;28;20039;-65
2022/12/13 07:21:51;;;;;;;;;;;-4.30;99.90;;;;;;5048754;28;19936;-65
2022/12/13 07:24:19;;;;;;;;;;;-4.30;99.90;;;;;;5049547;28;20024;-65
2022/12/13 07:26:47;;;;;;;;;;;-4.40;99.90;;;;;;5049059;28;20422;-65
2022/12/13 07:29:14;;;;;;;;;;;-4.50;99.90;;;;;;5048771;28;19925;-65
2022/12/13 07:31:50;;;;;;;;;;;-4.40;99.90;;;;;;5048522;28;19925;-65
2022/12/13 07:34:19;;;;;;;;;;;-4.40;99.90;;;;;;5050988;28;20028;-65
2022/12/13 07:36:48;;;;;;;;;;;-4.40;99.90;;;;;;5051518;28;19925;-65
2022/12/13 07:39:16;;;;;;;;;;;-4.40;99.90;;;;;;5052022;28;19925;-65
2022/12/13 07:41:44;;;;;;;;;;;-4.30;99.90;;;;;;5050183;28;20305;-65
2022/12/13 07:44:12;;;;;;;;;;;-4.20;99.90;;;;;;5051384;28;19931;-65
2022/12/13 07:46:39;;;;;;;;;;;-4.20;99.90;;;;;;5053676;28;20249;-65
2022/12/13 07:49:09;;;;;;;;;;;-4.20;99.90;;;;;;5055688;28;20016;-65
2022/12/13 07:51:36;;;;;;;;;;;-4.10;99.90;;;;;;5054531;28;19924;-65
2022/12/13 07:54:07;;;;;;;;;;;-4.00;99.90;;;;;;5055132;28;19929;-64
2022/12/13 07:56:35;;;;;;;;;;;-3.80;99.90;;;;;;5054974;28;19935;-64
2022/12/13 07:59:03;;;;;;;;;;;-3.70;99.90;;;;;;5055966;28;20432;-64
2022/12/13 08:01:33;;;;;;;;;;;-3.50;99.90;;;;;;5055275;28;20031;-65
2022/12/13 08:04:01;;;;;;;;;;;-3.30;99.90;;;;;;5055443;28;20306;-64
2022/12/13 08:06:30;;;;;;;;;;;-3.20;99.90;;;;;;5054909;28;19932;-64
2022/12/13 08:08:58;;;;;;;;;;;-3.00;99.90;;;;;;5055324;28;20019;-64
2022/12/13 08:11:25;;;;;;;;;;;-3.00;99.90;;;;;;5053696;28;19924;-65
2022/12/13 08:13:53;;;;;;;;;;;-2.90;99.90;;;;;;5055026;28;19929;-65
2022/12/13 08:16:21;;;;;;;;;;;-2.80;99.90;;;;;;5054842;28;20305;-65
2022/12/13 08:18:55;;;;;;;;;;;-2.70;99.90;;;;;;5054997;28;20023;-64
2022/12/13 08:21:35;;;;;;;;;;;-2.50;99.90;;;;;;5053954;28;19925;-64
2022/12/13 08:24:22;;;;;;;;;;;-2.40;99.90;;;;;;5054667;28;20008;-64
2022/12/13 08:26:50;;;;;;;;;;;-2.20;99.90;;;;;;5054502;28;20019;-64
2022/12/13 08:29:18;;;;;;;;;;;-2.10;99.90;;;;;;5054486;28;20457;-64
2022/12/13 08:32:00;;;;;;;;;;;-1.90;99.90;;;;;;5054378;28;19925;-64
2022/12/13 08:34:29;;;;;;;;;;;-1.60;99.90;;;;;;5054768;28;19925;-64
2022/12/13 08:36:58;;;;;;;;;;;-1.50;99.90;;;;;;5055069;28;19986;-64
2022/12/13 08:39:29;;;;;;;;;;;-1.30;99.90;;;;;;5054044;28;19935;-64
2022/12/13 08:42:00;;;;;;;;;;;-1.10;99.90;;;;;;5053986;28;20360;-65
2022/12/13 08:44:45;;;;;;;;;;;-0.90;99.90;;;;;;5054428;28;19925;-65
2022/12/13 08:47:13;;;;;;;;;;;-0.70;99.90;;;;;;5054240;28;19940;-64
2022/12/13 08:49:52;;;;;;;;;;;-0.50;99.90;;;;;;5053577;28;20027;-64
2022/12/13 08:52:22;;;;;;;;;;;-0.40;99.90;;;;;;5054099;28;19925;-64
2022/12/13 08:54:50;;;;;;;;;;;-0.40;99.90;;;;;;5053414;28;20019;-64
2022/12/13 08:57:17;;;;;;;;;;;-0.30;99.90;;;;;;5053214;28;20301;-64
2022/12/13 08:59:45;;;;;;;;;;;-0.30;99.90;;;;;;5053387;28;20301;-64
2022/12/13 09:02:13;;;;;;;;;;;-0.20;99.90;;;;;;5053492;28;19925;-64
2022/12/13 09:04:41;;;;;;;;;;;-0.10;99.90;;;;;;5054195;28;19924;-64
2022/12/13 09:07:09;;;;;;;;;;;0.00;99.90;;;;;;5053777;28;19929;-64
2022/12/13 09:09:38;;;;;;;;;;;0.20;99.90;;;;;;5053360;28;19929;-64
2022/12/13 09:12:06;;;;;;;;;;;0.30;99.90;;;;;;5053379;28;19929;-64
2022/12/13 09:14:38;;;;;;;;;;;0.50;99.90;;;;;;5053938;28;19925;-64
2022/12/13 09:17:13;;;;;;;;;;;0.40;99.90;;;;;;5053615;28;19975;-64
2022/12/13 09:19:51;;;;;;;;;;;0.30;99.90;;;;;;5053295;28;19925;-64
2022/12/13 09:22:25;;;;;;;;;;;0.50;99.90;;;;;;5053331;28;19925;-64
2022/12/13 09:25:02;;;;;;;;;;;0.70;99.90;;;;;;5053756;28;19970;-64
2022/12/13 09:27:30;;;;;;;;;;;0.70;99.90;;;;;;5053368;28;20012;-64
2022/12/13 09:30:07;;;;;;;;;;;0.50;99.90;;;;;;5052858;28;19935;-64
2022/12/13 09:32:35;;;;;;;;;;;0.30;99.90;;;;;;5053041;28;19967;-65
2022/12/13 09:35:03;;;;;;;;;;;0.50;99.90;;;;;;5053424;28;19931;-64
2022/12/13 09:37:31;;;;;;;;;;;0.70;99.90;;;;;;5053051;28;19947;-64
2022/12/13 09:39:58;;;;;;;;;;;0.90;99.90;;;;;;5052385;28;19929;-64
2022/12/13 09:42:46;;;;;;;;;;;1.00;99.90;;;;;;5052975;28;19924;-64
2022/12/13 09:45:14;;;;;;;;;;;1.10;99.90;;;;;;5053218;28;20015;-64
2022/12/13 09:47:50;;;;;;;;;;;1.00;99.90;;;;;;5053127;28;19925;-64
2022/12/13 09:50:21;;;;;;;;;;;1.00;99.90;;;;;;5052703;28;19975;-64
2022/12/13 09:52:52;;;;;;;;;;;1.00;99.90;;;;;;5052778;28;19931;-64
2022/12/13 09:55:28;;;;;;;;;;;0.90;99.90;;;;;;5053103;28;20358;-64
2022/12/13 09:57:58;;;;;;;;;;;0.70;99.90;;;;;;5052892;28;19929;-64
2022/12/13 10:00:32;;;;;;;;;;;0.80;99.90;;;;;;5051906;28;19928;-65
2022/12/13 10:03:00;;;;;;;;;;;0.90;99.90;;;;;;5052564;28;19935;-64
2022/12/13 10:05:28;;;;;;;;;;;1.00;99.90;;;;;;5052123;28;19925;-64
2022/12/13 10:08:06;;;;;;;;;;;1.00;99.90;;;;;;5051986;28;19925;-64
2022/12/13 10:10:33;;;;;;;;;;;1.30;99.90;;;;;;5051819;28;20413;-64
2022/12/13 10:13:06;;;;;;;;;;;1.50;99.90;;;;;;5052723;28;20301;-64
2022/12/13 10:15:35;;;;;;;;;;;1.70;99.90;;;;;;5052633;28;19928;-64
2022/12/13 10:18:04;;;;;;;;;;;1.90;99.90;;;;;;5052291;28;19931;-64
2022/12/13 10:20:32;;;;;;;;;;;1.90;99.90;;;;;;5051977;28;19929;-64
2022/12/13 10:23:00;;;;;;;;;;;2.00;99.90;;;;;;5051943;28;19935;-64
2022/12/13 10:25:49;;;;;;;;;;;2.00;99.90;;;;;;5051756;28;19925;-64
2022/12/13 10:28:24;;;;;;;;;;;2.20;99.90;;;;;;5052458;28;19931;-64
2022/12/13 10:30:52;;;;;;;;;;;2.30;99.90;;;;;;5051634;28;19931;-64
2022/12/13 10:33:21;;;;;;;;;;;2.40;99.90;;;;;;5052078;28;19925;-64
2022/12/13 10:36:08;;;;;;;;;;;2.50;99.90;;;;;;5052203;28;19968;-64
2022/12/13 10:38:37;;;;;;;;;;;2.50;99.90;;;;;;5051097;28;20282;-64
2022/12/13 10:41:25;;;;;;;;;;;2.40;99.90;;;;;;5051614;28;20448;-64
2022/12/13 10:44:08;;;;;;;;;;;2.20;99.90;;;;;;5052527;28;19924;-64
2022/12/13 10:46:36;;;;;;;;;;;2.00;99.90;;;;;;5051982;28;19931;-64
2022/12/13 10:49:12;;;;;;;;;;;1.80;99.90;;;;;;5052018;28;20000;-64
2022/12/13 10:51:42;;;;;;;;;;;2.00;99.90;;;;;;5051599;28;19986;-64
2022/12/13 10:54:14;;;;;;;;;;;2.10;99.90;;;;;;5051919;28;19931;-64
2022/12/13 10:56:45;;;;;;;;;;;2.30;99.90;;;;;;5072080;23;19988;-64
2022/12/13 10:59:24;;;;;;;;;;;2.40;99.90;;;;;;5031538;28;19925;-64
2022/12/13 11:01:51;;;;;;;;;;;2.70;99.90;;;;;;5030954;28;19925;-64
2022/12/13 11:04:21;;;;;;;;;;;3.00;99.90;;;;;;5031754;28;19976;-64
2022/12/13 11:06:55;;;;;;;;;;;3.10;99.90;;;;;;5031713;28;19925;-64
2022/12/13 11:09:25;;;;;;;;;;;3.00;99.90;;;;;;5039945;28;19929;-64
2022/12/13 11:11:53;;;;;;;;;;;2.90;99.90;;;;;;5051016;28;20416;-64
2022/12/13 11:14:28;;;;;;;;;;;2.70;99.90;;;;;;5051620;28;19925;-64
2022/12/13 11:17:00;;;;;;;;;;;2.70;99.90;;;;;;5033567;28;19948;-64
2022/12/13 11:19:33;;;;;;;;;;;2.80;99.90;;;;;;5031061;28;19925;-64
2022/12/13 11:22:01;;;;;;;;;;;2.90;99.90;;;;;;5031708;28;19925;-64
2022/12/13 11:24:30;;;;;;;;;;;3.00;99.90;;;;;;5040579;28;20218;-64
2022/12/13 11:27:00;;;;;;;;;;;3.10;99.90;;;;;;5051647;28;19925;-64
2022/12/13 11:29:39;;;;;;;;;;;2.80;99.90;;;;;;5036380;28;19925;-64
2022/12/13 11:32:14;;;;;;;;;;;2.80;99.90;;;;;;5031017;28;19933;-64
2022/12/13 11:34:55;;;;;;;;;;;2.90;99.90;;;;;;5031619;28;19932;-64
2022/12/13 11:37:26;;;;;;;;;;;3.10;99.90;;;;;;5031542;28;20390;-64
2022/12/13 11:39:55;;;;;;;;;;;3.40;99.90;;;;;;5030681;28;20279;-64
2022/12/13 11:42:31;;;;;;;;;;;3.40;99.90;;;;;;5031241;28;20321;-64
2022/12/13 11:45:05;;;;;;;;;;;3.50;99.90;;;;;;5031551;28;20427;-64
2022/12/13 11:47:35;;;;;;;;;;;3.90;99.90;;;;;;5031257;28;19925;-64
2022/12/13 11:50:04;;;;;;;;;;;3.90;99.90;;;;;;5030682;28;19926;-64
2022/12/13 11:52:36;;;;;;;;;;;4.10;99.90;;;;;;5031524;28;20314;-65
2022/12/13 11:55:06;;;;;;;;;;;4.10;99.90;;;;;;5031440;28;19925;-65
2022/12/13 11:57:39;;;;;;;;;;;4.10;99.90;;;;;;5031011;28;20413;-64
2022/12/13 12:00:17;;;;;;;;;;;4.50;99.90;;;;;;5030362;28;20385;-64
2022/12/13 12:03:10;;;;;;;;;;;4.70;99.90;;;;;;5046846;28;19936;-64
2022/12/13 12:05:41;;;;;;;;;;;5.00;99.90;;;;;;5040390;28;19940;-64
2022/12/13 12:08:12;;;;;;;;;;;4.70;99.90;;;;;;5033001;28;19925;-64
2022/12/13 12:11:03;;;;;;;;;;;4.40;99.90;;;;;;5030940;28;19925;-64
2022/12/13 12:13:35;;;;;;;;;;;4.10;99.90;;;;;;5031183;28;19925;-65
2022/12/13 12:16:25;;;;;;;;;;;3.90;99.90;;;;;;5031466;28;20016;-64
2022/12/13 12:18:53;;;;;;;;;;;3.30;99.90;;;;;;5031046;28;19925;-65
2022/12/13 12:21:34;;;;;;;;;;;2.70;99.90;;;;;;5030430;28;20398;-63
2022/12/13 12:24:25;;;;;;;;;;;2.00;99.90;;;;;;5031301;28;19925;-64
2022/12/13 12:26:56;;;;;;;;;;;1.50;99.90;;;;;;5031288;28;20027;-64
2022/12/13 12:29:35;;;;;;;;;;;1.10;99.90;;;;;;5030779;28;19943;-64
2022/12/13 12:32:10;;;;;;;;;;;0.90;99.90;;;;;;5034358;28;20404;-64
2022/12/13 12:34:41;;;;;;;;;;;0.80;99.90;;;;;;5034553;28;20016;-65
2022/12/13 12:37:12;;;;;;;;;;;0.60;99.90;;;;;;5034711;28;19997;-64
2022/12/13 12:39:49;;;;;;;;;;;0.50;99.90;;;;;;5033722;28;19928;-64
2022/12/13 12:42:25;;;;;;;;;;;0.20;99.90;;;;;;5034467;28;19976;-64
2022/12/13 12:45:00;;;;;;;;;;;0.10;99.90;;;;;;5034270;28;19937;-64
2022/12/13 12:47:34;;;;;;;;;;;0.10;99.90;;;;;;5034133;28;20383;-65
2022/12/13 12:50:25;;;;;;;;;;;0.00;99.90;;;;;;5052040;28;19929;-64
2022/12/13 12:52:59;;;;;;;;;;;-0.10;99.90;;;;;;5054214;28;19924;-64
2022/12/13 12:55:31;;;;;;;;;;;-0.20;99.90;;;;;;5053970;28;20302;-64
2022/12/13 12:58:03;;;;;;;;;;;-0.30;99.90;;;;;;5054021;28;20144;-64
2022/12/13 13:00:35;;;;;;;;;;;-0.30;99.90;;;;;;5034422;28;20383;-64
2022/12/13 13:03:10;;;;;;;;;;;-0.20;99.90;;;;;;5019027;28;19960;-64
2022/12/13 13:05:51;;;;;;;;;;;-0.30;99.90;;;;;;5014115;28;19925;-64
2022/12/13 13:08:28;;;;;;;;;;;-0.30;99.90;;;;;;5013969;28;20029;-66
2022/12/13 13:10:57;;;;;;;;;;;-0.30;99.90;;;;;;5013512;28;19925;-64
2022/12/13 13:13:36;;;;;;;;;;;-0.30;99.90;;;;;;5014134;28;19926;-63
2022/12/13 13:16:30;;;;;;;;;;;-0.40;99.90;;;;;;5019162;28;19932;-65
2022/12/13 13:18:59;;;;;;;;;;;-0.40;99.90;;;;;;5032307;28;19925;-64
2022/12/13 13:21:48;;;;;;;;;;;-0.40;99.90;;;;;;5030654;28;20414;-63
2022/12/13 13:24:23;;;;;;;;;;;-0.40;99.90;;;;;;5024422;28;20386;-64
2022/12/13 13:26:51;;;;;;;;;;;-0.40;99.90;;;;;;5033712;28;19925;-63
2022/12/13 13:29:29;;;;;;;;;;;-0.40;99.90;;;;;;5033274;28;19931;-65
2022/12/13 13:31:59;;;;;;;;;;;-0.40;99.90;;;;;;5033769;28;19947;-65
2022/12/13 13:34:31;;;;;;;;;;;-0.30;99.90;;;;;;5033385;28;19983;-64
2022/12/13 13:36:59;;;;;;;;;;;-0.20;99.90;;;;;;5033398;28;19925;-64
2022/12/13 13:39:38;;;;;;;;;;;-0.30;99.90;;;;;;5033208;28;19925;-64
2022/12/13 13:42:09;;;;;;;;;;;-0.20;99.90;;;;;;5033458;28;19936;-64
2022/12/13 13:44:52;;;;;;;;;;;-0.20;99.90;;;;;;5032177;28;19932;-64
2022/12/13 13:47:44;;;;;;;;;;;-0.10;99.90;;;;;;5033431;28;19932;-64
2022/12/13 13:50:23;;;;;;;;;;;-0.10;99.90;;;;;;5016956;28;19929;-64
2022/12/13 13:52:56;;;;;;;;;;;-0.10;99.90;;;;;;5033130;28;19925;-64
2022/12/13 13:55:33;;;;;;;;;;;-0.10;99.90;;;;;;5033413;28;19924;-64
2022/12/13 13:58:07;;;;;;;;;;;-0.10;99.90;;;;;;5032814;28;19925;-64
2022/12/13 14:00:47;;;;;;;;;;;-0.10;99.90;;;;;;5032476;28;20357;-64
2022/12/13 14:03:41;;;;;;;;;;;-0.10;99.90;;;;;;5033201;28;19932;-64
2022/12/13 14:06:34;;;;;;;;;;;-0.10;99.90;;;;;;5032635;28;19932;-64
2022/12/13 14:09:10;;;;;;;;;;;-0.10;99.90;;;;;;5032861;28;19951;-64
2022/12/13 14:11:57;;;;;;;;;;;-0.10;99.90;;;;;;5031939;28;19939;-64
2022/12/13 14:14:40;;;;;;;;;;;-0.10;99.90;;;;;;5032513;28;19931;-64
2022/12/13 14:17:43;;;;;;;;;;;-0.10;99.90;;;;;;5013152;28;20024;-64
2022/12/13 14:20:29;;;;;;;;;;;-0.10;99.90;;;;;;5018557;28;20310;-64
2022/12/13 14:23:00;;;;;;;;;;;-0.10;99.90;;;;;;5027033;28;19925;-64
2022/12/13 14:25:49;;;;;;;;;;;-0.20;99.90;;;;;;5032648;28;19948;-64
2022/12/13 14:28:24;;;;;;;;;;;-0.20;99.90;;;;;;5030121;28;19931;-64
2022/12/13 14:30:52;;;;;;;;;;;-0.30;99.90;;;;;;5031903;28;19975;-63
2022/12/13 14:33:25;;;;;;;;;;;-0.50;99.90;;;;;;5032303;28;19925;-64
2022/12/13 14:35:55;;;;;;;;;;;-0.40;99.90;;;;;;5032150;28;20404;-65
2022/12/13 14:38:25;;;;;;;;;;;-0.50;99.90;;;;;;5031933;28;19931;-63
2022/12/13 14:40:54;;;;;;;;;;;-0.50;99.90;;;;;;5031742;28;19932;-63
2022/12/13 14:43:22;;;;;;;;;;;-0.50;99.90;;;;;;5032278;28;19925;-63
2022/12/13 14:45:55;;;;;;;;;;;-0.50;99.90;;;;;;5031943;28;19925;-64
2022/12/13 14:48:25;;;;;;;;;;;-0.60;99.90;;;;;;5031960;28;19925;-64
2022/12/13 14:50:55;;;;;;;;;;;-0.60;99.90;;;;;;5031055;28;19939;-63
2022/12/13 14:53:26;;;;;;;;;;;-0.60;99.90;;;;;;5031946;28;19925;-64
2022/12/13 14:56:05;;;;;;;;;;;-0.70;99.90;;;;;;5031406;28;19925;-64